Time;durP1;ratioP1;P1;durP2;ratioP2;P2;SDS_P1;SDS_P2;PMS_P1;PMS_P2;Temp;Humidity;BMP_temperature;BMP_pressure;BME280_temperature;BME280_humidity;BME280_pressure;Samples;Min_cycle;Max_cycle;Signal;HPM_P1;HPM_P2
2023/04/04 00:00:20;;;;;;;4.03;1.87;;;6.90;47.30;;;9.45;37.87;103101.16;5035966;28;20194;-59
2023/04/04 00:02:48;;;;;;;3.37;1.90;;;6.80;47.00;;;9.41;38.64;103110.22;5035841;28;20644;-60
2023/04/04 00:05:15;;;;;;;3.40;1.93;;;6.80;47.50;;;9.38;38.41;103116.53;5036059;28;20214;-59
2023/04/04 00:07:45;;;;;;;4.63;1.80;;;6.80;47.60;;;9.36;38.57;103113.16;5035887;28;20274;-59
2023/04/04 00:10:14;;;;;;;1.93;1.43;;;6.80;48.10;;;9.37;38.59;103120.09;5035701;28;20190;-59
2023/04/04 00:12:41;;;;;;;3.57;1.63;;;6.80;48.40;;;9.41;38.34;103104.97;5035762;28;20199;-59
2023/04/04 00:15:10;;;;;;;4.57;2.13;;;6.80;47.90;;;9.44;38.49;103107.34;5035391;28;20714;-56
2023/04/04 00:17:37;;;;;;;3.97;2.03;;;6.80;48.10;;;9.45;38.54;103101.16;5035816;28;20210;-58
2023/04/04 00:20:06;;;;;;;2.43;1.50;;;6.90;47.70;;;9.42;37.96;103102.22;5051141;28;20225;-59
2023/04/04 00:22:33;;;;;;;4.33;1.53;;;6.80;47.50;;;9.37;38.69;103099.06;5035295;28;20190;-59
2023/04/04 00:25:00;;;;;;;1.97;1.80;;;6.80;47.80;;;9.34;38.60;103088.75;5034941;28;20218;-61
2023/04/04 00:27:28;;;;;;;2.87;1.67;;;6.70;48.00;;;9.32;38.88;103093.28;5035326;28;20183;-59
2023/04/04 00:29:55;;;;;;;2.37;1.80;;;6.70;48.00;;;9.26;38.53;103083.22;5034023;28;20186;-58
2023/04/04 00:32:22;;;;;;;3.67;1.67;;;6.70;48.00;;;9.20;38.65;103086.25;5035212;28;20222;-59
2023/04/04 00:34:51;;;;;;;3.93;1.73;;;6.60;48.20;;;9.13;38.62;103087.63;5034781;28;20220;-60
2023/04/04 00:37:19;;;;;;;1.97;1.60;;;6.50;48.50;;;9.06;38.95;103086.38;5035251;28;20233;-58
2023/04/04 00:39:46;;;;;;;4.33;2.20;;;6.50;48.80;;;8.99;39.69;103082.50;5034937;28;20210;-59
2023/04/04 00:42:13;;;;;;;3.27;1.67;;;6.40;49.30;;;8.97;39.30;103079.16;5035138;28;20593;-59
2023/04/04 00:44:41;;;;;;;3.73;1.87;;;6.40;49.40;;;8.96;39.33;103074.88;5034695;28;20218;-59
2023/04/04 00:47:08;;;;;;;4.03;2.00;;;6.30;49.20;;;8.95;39.44;103082.81;5034974;28;20675;-60
2023/04/04 00:49:36;;;;;;;2.23;1.80;;;6.30;49.60;;;8.92;39.66;103078.63;5034952;28;20199;-60
2023/04/04 00:52:05;;;;;;;2.87;1.93;;;6.30;50.00;;;8.90;39.72;103075.28;5034613;28;20741;-56
2023/04/04 00:54:34;;;;;;;3.07;1.90;;;6.30;49.80;;;8.88;40.15;103079.78;5034640;28;20249;-60
2023/04/04 00:57:05;;;;;;;1.43;1.33;;;6.30;50.30;;;8.87;39.90;103070.22;5050638;28;20736;-59
2023/04/04 00:59:33;;;;;;;4.37;1.90;;;6.30;50.30;;;8.85;39.75;103070.34;5034879;28;20199;-59
2023/04/04 01:02:01;;;;;;;3.33;1.93;;;6.20;50.10;;;8.83;39.83;103069.59;5049526;28;20583;-58
2023/04/04 01:04:29;;;;;;;3.27;1.83;;;6.20;50.30;;;8.83;39.95;103066.13;5034431;28;20212;-59
2023/04/04 01:06:56;;;;;;;4.07;2.07;;;6.20;50.30;;;8.79;39.92;103062.06;5033477;28;20236;-59
2023/04/04 01:09:24;;;;;;;3.03;1.67;;;6.20;50.30;;;8.74;40.10;103058.91;5034208;28;20188;-56
2023/04/04 01:11:52;;;;;;;4.03;2.43;;;6.10;50.70;;;8.72;40.00;103058.16;5034167;28;20212;-58
2023/04/04 01:14:19;;;;;;;3.70;2.13;;;6.10;50.90;;;8.69;40.06;103048.72;5033911;28;20216;-60
2023/04/04 01:16:48;;;;;;;5.20;2.30;;;6.10;50.40;;;8.65;40.09;103056.91;5034762;28;20200;-58
2023/04/04 01:19:29;;;;;;;4.57;2.00;;;6.00;50.90;;;8.59;40.06;103052.06;5049562;28;20283;-60
2023/04/04 01:22:00;;;;;;;4.03;1.83;;;6.00;51.10;;;8.55;40.37;103047.97;5034460;28;20213;-58
2023/04/04 01:24:33;;;;;;;5.37;1.90;;;5.90;51.30;;;8.49;40.42;103040.50;5033908;28;20217;-60
2023/04/04 01:27:01;;;;;;;4.03;2.20;;;5.90;51.40;;;8.46;40.49;103045.97;5014488;28;20201;-59
2023/04/04 01:29:28;;;;;;;5.87;1.97;;;5.80;51.70;;;8.46;40.42;103036.31;5014418;28;20819;-61
2023/04/04 01:32:04;;;;;;;4.07;2.17;;;5.80;51.50;;;8.44;40.49;103042.63;5014906;28;20220;-58
2023/04/04 01:34:43;;;;;;;3.97;1.93;;;5.80;51.60;;;8.44;40.76;103042.63;5014010;28;20214;-58
2023/04/04 01:37:23;;;;;;;3.57;1.50;;;5.80;52.10;;;8.49;40.51;103051.00;5013431;28;20207;-59
2023/04/04 01:39:58;;;;;;;5.83;2.37;;;5.80;51.70;;;8.55;40.22;103045.34;5013520;28;20199;-59
2023/04/04 01:42:27;;;;;;;3.17;1.83;;;5.90;51.50;;;8.57;40.09;103048.72;5013804;28;20191;-59
2023/04/04 01:44:55;;;;;;;4.87;2.20;;;5.90;51.40;;;8.59;40.09;103041.56;5017903;28;20222;-60
2023/04/04 01:47:23;;;;;;;3.90;2.17;;;6.00;51.30;;;8.62;40.37;103038.75;5034046;28;20210;-59
2023/04/04 01:49:52;;;;;;;2.03;1.83;;;6.00;51.20;;;8.64;40.08;103035.06;5034574;28;20248;-57
2023/04/04 01:52:20;;;;;;;5.07;2.17;;;6.00;51.20;;;8.69;40.27;103034.75;5034995;28;20229;-62
2023/04/04 01:54:47;;;;;;;4.87;2.43;;;6.10;51.20;;;8.73;39.76;103025.69;5037076;28;20264;-61
2023/04/04 01:57:14;;;;;;;2.40;1.70;;;6.10;50.80;;;8.73;39.66;103029.19;5033749;28;20622;-58
2023/04/04 01:59:42;;;;;;;4.10;2.47;;;6.10;50.50;;;8.74;39.51;103030.03;5033839;28;20280;-61
2023/04/04 02:02:09;;;;;;;3.03;2.07;;;6.20;50.40;;;8.74;39.77;103024.78;5033978;28;20201;-57
2023/04/04 02:04:36;;;;;;;4.10;2.10;;;6.10;50.30;;;8.72;39.35;103016.16;5033633;28;20363;-57
2023/04/04 02:07:03;;;;;;;3.90;1.97;;;6.10;50.00;;;8.70;39.14;103007.56;5033600;28;20241;-59
2023/04/04 02:09:31;;;;;;;2.87;1.60;;;6.00;49.60;;;8.65;39.29;103014.91;5036167;28;20198;-60
2023/04/04 02:11:58;;;;;;;3.53;2.10;;;6.00;49.80;;;8.60;39.28;103017.00;5032986;28;20219;-56
2023/04/04 02:14:25;;;;;;;3.80;2.00;;;6.00;50.10;;;8.58;39.21;103018.91;5036678;28;20224;-57
2023/04/04 02:16:54;;;;;;;6.07;2.10;;;5.90;50.00;;;8.55;39.24;103019.09;5053016;28;20253;-57
2023/04/04 02:19:20;;;;;;;3.33;2.13;;;5.90;50.00;;;8.54;39.12;103014.78;5037774;28;20687;-60
2023/04/04 02:21:47;;;;;;;2.03;1.77;;;5.90;49.70;;;8.48;39.39;103012.59;5037386;28;20552;-58
2023/04/04 02:24:14;;;;;;;4.73;2.10;;;5.80;49.80;;;8.45;39.30;103020.66;5037224;28;20599;-58
2023/04/04 02:26:41;;;;;;;5.90;2.27;;;5.80;50.00;;;8.42;39.17;103019.09;5037262;28;20192;-59
2023/04/04 02:29:08;;;;;;;6.73;2.10;;;5.80;50.20;;;8.43;39.17;103020.78;5037051;28;20208;-58
2023/04/04 02:31:35;;;;;;;3.03;1.90;;;5.80;50.00;;;8.42;38.82;103013.00;5036982;28;20235;-58
2023/04/04 02:34:03;;;;;;;4.67;2.00;;;5.70;49.90;;;8.43;39.59;103019.94;5037080;28;20683;-60
2023/04/04 02:36:30;;;;;;;7.43;2.37;;;5.80;50.80;;;8.46;39.28;103019.75;5037342;28;20220;-59
2023/04/04 02:38:57;;;;;;;2.70;1.67;;;5.80;50.00;;;8.47;39.08;103017.00;5037256;28;20215;-57
2023/04/04 02:41:24;;;;;;;1.83;1.73;;;5.80;50.00;;;8.48;38.63;103012.59;5036970;28;20204;-58
2023/04/04 02:43:51;;;;;;;4.30;2.10;;;5.80;49.50;;;8.46;38.62;103011.88;5036650;28;20623;-59
2023/04/04 02:46:18;;;;;;;3.33;1.70;;;5.80;49.50;;;8.43;38.81;103012.06;5037270;28;20205;-62
2023/04/04 02:48:49;;;;;;;4.60;2.10;;;5.70;49.10;;;8.38;38.74;103003.66;5037316;28;20197;-59
2023/04/04 02:51:17;;;;;;;5.30;2.40;;;5.70;49.30;;;8.35;38.93;103009.97;5037402;28;20194;-61
2023/04/04 02:53:44;;;;;;;3.97;1.90;;;5.70;49.70;;;8.32;38.93;103001.47;5037224;28;20218;-57
2023/04/04 02:56:11;;;;;;;3.13;1.83;;;5.70;49.40;;;8.30;39.27;103006.81;5037457;28;20194;-60
2023/04/04 02:58:38;;;;;;;4.60;1.97;;;5.70;49.90;;;8.31;39.07;103005.03;5037138;28;20196;-60
2023/04/04 03:01:08;;;;;;;4.73;2.00;;;5.70;49.90;;;8.33;38.87;103009.22;5036809;28;20214;-60
2023/04/04 03:03:35;;;;;;;2.13;1.63;;;5.70;49.60;;;8.33;38.43;103013.63;5036605;28;20252;-56
2023/04/04 03:06:02;;;;;;;4.90;2.00;;;5.70;49.20;;;8.29;38.62;103006.91;5037206;28;20199;-61
2023/04/04 03:08:31;;;;;;;5.33;2.27;;;5.60;49.20;;;8.26;38.95;102999.22;5037161;28;20205;-56
2023/04/04 03:10:57;;;;;;;3.23;1.83;;;5.60;49.80;;;8.30;39.21;103003.34;5037499;28;20260;-59
2023/04/04 03:13:24;;;;;;;5.40;2.30;;;5.60;49.70;;;8.32;39.06;102997.03;5033408;28;20229;-61
2023/04/04 03:16:01;;;;;;;3.07;1.77;;;5.70;49.80;;;8.33;39.03;102988.25;5036483;28;20200;-59
2023/04/04 03:18:28;;;;;;;3.13;1.60;;;5.70;49.70;;;8.34;38.89;102987.31;5036842;28;20192;-57
2023/04/04 03:20:55;;;;;;;3.57;1.90;;;5.70;49.80;;;8.33;38.61;102987.41;5036768;28;20713;-58
2023/04/04 03:23:22;;;;;;;2.90;1.57;;;5.60;49.30;;;8.30;38.60;102980.56;5036516;28;20198;-58
2023/04/04 03:25:50;;;;;;;4.00;2.10;;;5.60;49.40;;;8.27;38.95;102977.34;5036004;28;20216;-58
2023/04/04 03:28:17;;;;;;;6.80;2.10;;;5.60;49.50;;;8.25;39.03;102971.31;5036806;28;20195;-60
2023/04/04 03:30:44;;;;;;;3.67;1.80;;;5.50;49.70;;;8.23;38.51;102975.81;5036407;28;20191;-58
2023/04/04 03:33:11;;;;;;;7.83;2.10;;;5.50;49.70;;;8.20;39.00;102972.44;5036512;28;20269;-61
2023/04/04 03:35:39;;;;;;;4.93;2.00;;;5.50;49.90;;;8.22;39.06;102976.75;5036341;28;20614;-60
2023/04/04 03:38:07;;;;;;;3.53;2.07;;;5.50;50.10;;;8.22;38.90;102974.16;5051952;28;20188;-60
2023/04/04 03:40:34;;;;;;;4.03;1.93;;;5.50;50.10;;;8.23;38.85;102976.66;5036220;28;20210;-61
2023/04/04 03:43:06;;;;;;;3.80;2.00;;;5.50;50.20;;;8.25;39.34;102973.94;5036079;28;20194;-60
2023/04/04 03:45:34;;;;;;;3.20;2.13;;;5.50;50.20;;;8.27;39.32;102977.34;5035963;28;20208;-58
2023/04/04 03:48:01;;;;;;;4.10;2.53;;;5.50;50.50;;;8.28;39.20;102973.75;5035877;28;20195;-59
2023/04/04 03:50:29;;;;;;;2.60;1.97;;;5.60;50.20;;;8.26;39.09;102970.34;5036394;28;20295;-61
2023/04/04 03:52:59;;;;;;;4.10;2.40;;;5.50;50.20;;;8.24;39.24;102967.00;5035722;28;20215;-61
2023/04/04 03:55:26;;;;;;;3.67;2.07;;;5.50;50.40;;;8.23;39.28;102971.41;5036504;28;20204;-57
2023/04/04 03:57:53;;;;;;;3.23;2.00;;;5.50;50.30;;;8.20;39.23;102977.69;5034412;28;20200;-60
2023/04/04 04:00:21;;;;;;;3.90;1.77;;;5.50;50.30;;;8.18;39.03;102974.34;5036169;28;20194;-57
2023/04/04 04:02:48;;;;;;;4.63;2.10;;;5.50;50.20;;;8.15;39.60;102979.78;5035828;28;20195;-60
2023/04/04 04:05:15;;;;;;;2.67;1.80;;;5.50;50.20;;;8.12;39.30;102972.16;5035325;28;20239;-61
2023/04/04 04:07:43;;;;;;;4.17;1.70;;;5.50;50.50;;;8.13;39.47;102975.59;5035624;28;20201;-59
2023/04/04 04:10:12;;;;;;;2.40;1.83;;;5.50;50.40;;;8.14;39.53;102974.66;5035351;28;20199;-62
2023/04/04 04:12:40;;;;;;;4.83;2.40;;;5.50;50.40;;;8.13;39.25;102965.94;5035873;28;20624;-57
2023/04/04 04:15:08;;;;;;;2.83;1.90;;;5.50;50.40;;;8.15;39.21;102963.25;5035321;28;20212;-60
2023/04/04 04:17:39;;;;;;;4.07;2.23;;;5.50;50.20;;;8.15;39.31;102964.06;5036030;28;20675;-59
2023/04/04 04:20:08;;;;;;;4.70;2.50;;;5.50;50.50;;;8.18;39.63;102961.22;5035929;28;20206;-56
2023/04/04 04:22:36;;;;;;;3.30;2.27;;;5.50;50.50;;;8.20;39.31;102967.19;5036034;28;20187;-59
2023/04/04 04:25:04;;;;;;;4.07;2.20;;;5.50;50.40;;;8.22;39.26;102969.75;5035144;28;20218;-60
2023/04/04 04:27:31;;;;;;;3.93;1.80;;;5.50;50.40;;;8.23;39.44;102970.56;5035421;28;20209;-58
2023/04/04 04:29:58;;;;;;;4.67;2.03;;;5.50;50.30;;;8.24;39.67;102970.47;5035587;28;20198;-58
2023/04/04 04:32:26;;;;;;;3.33;2.17;;;5.50;50.50;;;8.25;39.16;102968.69;5035281;28;20708;-59
2023/04/04 04:34:54;;;;;;;4.17;2.33;;;5.50;50.50;;;8.27;39.28;102964.22;5035138;28;20671;-61
2023/04/04 04:37:22;;;;;;;5.53;2.40;;;5.60;50.60;;;8.30;39.32;102966.59;5035173;28;20188;-59
2023/04/04 04:39:49;;;;;;;4.63;2.10;;;5.60;50.90;;;8.33;39.60;102964.63;5035079;28;20195;-58
2023/04/04 04:42:16;;;;;;;3.83;2.33;;;5.60;50.80;;;8.35;39.41;102964.50;5035030;28;20238;-62
2023/04/04 04:44:43;;;;;;;5.93;2.13;;;5.70;50.70;;;8.36;39.40;102959.19;5050382;28;20241;-60
2023/04/04 04:47:10;;;;;;;4.80;2.37;;;5.70;50.70;;;8.38;39.66;102966.94;5035224;28;20204;-58
2023/04/04 04:49:37;;;;;;;4.67;2.30;;;5.70;51.00;;;8.42;39.65;102966.63;5034994;28;20198;-61
2023/04/04 04:52:05;;;;;;;4.83;2.33;;;5.70;51.00;;;8.48;39.30;102966.22;5035049;28;20211;-60
2023/04/04 04:54:32;;;;;;;4.57;2.07;;;5.80;50.70;;;8.51;39.39;102973.84;5034993;28;20223;-57
2023/04/04 04:57:00;;;;;;;4.13;2.23;;;5.80;50.60;;;8.55;39.23;102971.88;5035388;28;20253;-58
2023/04/04 04:59:28;;;;;;;3.10;2.00;;;5.80;50.50;;;8.57;39.04;102975.22;5035596;28;20204;-60
2023/04/04 05:01:55;;;;;;;3.47;1.87;;;5.80;50.40;;;8.56;39.29;102970.91;5038652;28;20795;-60
2023/04/04 05:04:22;;;;;;;3.43;2.03;;;5.90;50.40;;;8.55;39.14;102971.88;5035552;28;20249;-61
2023/04/04 05:06:49;;;;;;;5.57;2.17;;;5.90;50.60;;;8.57;39.51;102980.47;5034055;28;20192;-60
2023/04/04 05:09:17;;;;;;;5.03;2.17;;;5.80;50.70;;;8.56;39.11;102981.41;5034570;28;20202;-60
2023/04/04 05:11:44;;;;;;;5.00;2.10;;;5.80;50.50;;;8.54;39.34;102988.53;5034403;28;20241;-59
2023/04/04 05:14:11;;;;;;;3.37;2.20;;;5.80;51.40;;;8.55;39.37;102985.84;5033501;28;20280;-59
2023/04/04 05:16:37;;;;;;;4.40;2.20;;;5.80;50.80;;;8.57;38.85;102986.56;5034648;28;20199;-59
2023/04/04 05:19:04;;;;;;;4.53;2.63;;;5.80;50.20;;;8.54;38.80;102991.16;5033234;28;20208;-59
2023/04/04 05:21:31;;;;;;;4.13;2.10;;;5.80;50.30;;;8.49;39.32;102986.25;5034537;28;20198;-61
2023/04/04 05:23:58;;;;;;;2.67;1.80;;;5.80;50.60;;;8.48;38.90;102991.59;5033871;28;20217;-61
2023/04/04 05:26:28;;;;;;;4.43;1.90;;;5.80;50.70;;;8.47;39.26;102992.53;5034127;28;20716;-62
2023/04/04 05:28:55;;;;;;;5.17;2.20;;;5.70;50.50;;;8.48;39.39;103002.09;5034664;28;20196;-60
2023/04/04 05:31:22;;;;;;;6.50;2.73;;;5.80;50.80;;;8.50;39.54;103002.84;5034281;28;20246;-60
2023/04/04 05:33:49;;;;;;;3.53;2.23;;;5.80;51.10;;;8.55;39.25;102998.09;5033553;28;20230;-58
2023/04/04 05:36:16;;;;;;;5.70;2.50;;;5.80;50.90;;;8.59;39.27;102999.56;5036100;28;20196;-60
2023/04/04 05:38:43;;;;;;;3.80;2.20;;;5.80;50.90;;;8.64;39.48;102994.84;5033559;28;20626;-60
2023/04/04 05:41:10;;;;;;;4.63;2.47;;;5.90;51.20;;;8.71;39.17;102993.47;5033368;28;20603;-61
2023/04/04 05:43:38;;;;;;;3.13;2.17;;;5.90;50.80;;;8.76;38.96;103001.88;5033854;28;20659;-62
2023/04/04 05:46:05;;;;;;;3.60;2.13;;;6.00;50.80;;;8.79;38.97;103004.28;5033884;28;20197;-61
2023/04/04 05:48:32;;;;;;;11.00;5.10;;;6.00;50.80;;;8.80;38.92;103005.94;5032352;28;20293;-60
2023/04/04 05:50:59;;;;;;;5.13;3.53;;;6.00;50.60;;;8.84;39.05;103005.63;5036258;28;20192;-59
2023/04/04 05:53:26;;;;;;;5.27;3.07;;;6.00;50.90;;;8.91;39.01;103005.22;5033446;28;20222;-59
2023/04/04 05:55:53;;;;;;;10.10;5.90;;;6.00;50.70;;;8.97;38.84;103010.88;5049605;28;20192;-59
2023/04/04 05:58:20;;;;;;;3.97;2.70;;;6.10;50.70;;;9.02;38.75;103003.50;5033732;28;20202;-58
2023/04/04 06:00:48;;;;;;;4.53;2.80;;;6.10;50.40;;;9.06;38.68;103004.97;5033884;28;20218;-60
2023/04/04 06:03:15;;;;;;;8.80;5.27;;;6.20;50.50;;;9.10;38.57;102993.31;5033519;28;20200;-59
2023/04/04 06:05:51;;;;;;;3.23;2.70;;;6.20;50.20;;;9.12;38.34;102999.28;5032317;28;20249;-60
2023/04/04 06:08:18;;;;;;;3.57;2.20;;;6.20;50.30;;;9.14;38.20;102986.88;5033859;28;20218;-58
2023/04/04 06:10:45;;;;;;;5.27;2.60;;;6.30;50.00;;;9.16;38.28;102997.25;5033333;28;20198;-61
2023/04/04 06:13:12;;;;;;;4.70;2.43;;;6.30;50.00;;;9.16;38.21;102998.13;5033628;28;20284;-60
2023/04/04 06:15:39;;;;;;;3.13;2.00;;;6.30;49.70;;;9.13;38.08;103000.94;5029816;28;20230;-60
2023/04/04 06:18:07;;;;;;;4.57;2.17;;;6.30;49.50;;;9.11;38.56;103000.22;5015286;28;20192;-62
2023/04/04 06:20:34;;;;;;;7.23;2.67;;;6.20;50.00;;;9.09;38.25;102999.50;4997161;28;20203;-61
2023/04/04 06:23:03;;;;;;;6.37;2.50;;;6.20;49.50;;;9.06;38.27;103002.34;5014044;28;20201;-59
2023/04/04 06:25:31;;;;;;;3.73;2.00;;;6.20;49.90;;;9.07;38.28;103005.81;5013524;28;20217;-61
2023/04/04 06:27:58;;;;;;;3.73;2.43;;;6.20;49.90;;;9.09;38.49;102999.50;5013806;28;20206;-60
2023/04/04 06:30:25;;;;;;;5.87;2.60;;;6.20;50.10;;;9.14;38.62;103007.06;5012643;28;20197;-58
2023/04/04 06:32:52;;;;;;;3.93;2.77;;;6.20;50.40;;;9.19;38.48;103000.53;5013881;28;20241;-57
2023/04/04 06:35:20;;;;;;;4.17;3.40;;;6.30;50.30;;;9.24;38.58;103006.31;5013482;28;20227;-56
2023/04/04 06:37:53;;;;;;;6.10;2.77;;;6.40;50.40;;;9.32;38.50;103005.72;5029558;28;20278;-59
2023/04/04 06:40:21;;;;;;;5.17;2.73;;;6.40;50.50;;;9.43;38.70;103011.06;5033471;28;20325;-62
2023/04/04 06:42:50;;;;;;;7.53;3.10;;;6.50;50.40;;;9.53;38.08;103009.47;5033711;28;20191;-61
2023/04/04 06:45:17;;;;;;;8.73;4.53;;;6.60;50.20;;;9.62;38.03;103003.53;5048698;28;20211;-61
2023/04/04 06:47:45;;;;;;;4.83;2.80;;;6.70;49.70;;;9.69;37.95;103014.41;5033010;28;20643;-61
2023/04/04 06:50:12;;;;;;;4.37;2.57;;;6.80;49.40;;;9.68;37.61;103003.06;5033561;28;20286;-59
2023/04/04 06:52:41;;;;;;;5.77;2.70;;;6.80;48.80;;;9.68;37.34;103007.47;5032265;28;20271;-59
2023/04/04 06:55:08;;;;;;;3.33;2.37;;;6.80;48.70;;;9.67;37.62;103006.66;5031815;28;20214;-59
2023/04/04 06:57:37;;;;;;;2.90;2.40;;;6.80;48.70;;;9.65;37.19;103007.72;5033148;28;20198;-61
2023/04/04 07:00:06;;;;;;;7.57;2.93;;;6.80;48.30;;;9.66;37.23;103009.38;5034924;28;20206;-60
2023/04/04 07:02:33;;;;;;;2.93;2.40;;;6.80;48.50;;;9.66;36.92;103014.63;5052909;28;20190;-59
2023/04/04 07:05:00;;;;;;;4.30;2.40;;;6.80;48.20;;;9.63;37.05;103010.44;5037950;28;20206;-59
2023/04/04 07:07:28;;;;;;;4.97;2.70;;;6.80;48.30;;;9.65;37.11;103002.47;5047832;28;21076;-59
2023/04/04 07:09:57;;;;;;;24.57;12.87;;;6.80;48.40;;;9.78;37.44;103004.06;5030518;28;20676;-62
2023/04/04 07:12:24;;;;;;;5.07;2.87;;;6.80;48.90;;;10.17;36.62;103005.56;5034992;28;20209;-60
2023/04/04 07:14:51;;;;;;;3.87;2.40;;;7.00;48.40;;;10.64;35.79;103015.91;5036204;28;20329;-62
2023/04/04 07:17:18;;;;;;;5.73;2.07;;;7.20;48.10;;;11.28;35.88;103000.28;5035902;28;20213;-59
2023/04/04 07:19:51;;;;;;;3.57;2.20;;;7.50;48.40;;;12.00;34.76;102994.31;5037078;28;20583;-61
2023/04/04 07:22:18;;;;;;;6.17;2.20;;;7.90;47.80;;;12.73;33.24;102995.97;5036948;28;20187;-61
2023/04/04 07:24:47;;;;;;;4.53;2.30;;;8.40;46.40;;;13.44;32.01;102995.78;5036464;28;20210;-61
2023/04/04 07:27:15;;;;;;;6.00;2.57;;;9.00;45.00;;;14.18;30.92;103003.97;5036514;28;20195;-60
2023/04/04 07:29:42;;;;;;;2.50;2.30;;;9.60;43.40;;;14.92;30.19;102996.94;5036558;28;20690;-60
2023/04/04 07:32:09;;;;;;;3.93;2.37;;;10.10;42.00;;;15.68;29.19;102995.63;5036254;28;20192;-58
2023/04/04 07:34:36;;;;;;;2.97;2.23;;;10.70;40.60;;;16.45;28.01;102992.22;5035771;28;20709;-61
2023/04/04 07:37:03;;;;;;;2.30;2.10;;;11.30;39.40;;;17.10;27.07;102988.88;5036427;28;20206;-59
2023/04/04 07:39:30;;;;;;;4.83;2.37;;;11.90;38.00;;;17.87;26.25;102985.03;5035236;28;20241;-62
2023/04/04 07:41:57;;;;;;;3.07;2.20;;;12.40;37.00;;;18.30;25.75;102984.66;5035809;28;20611;-63
2023/04/04 07:44:26;;;;;;;3.63;2.57;;;13.00;36.00;;;18.62;24.73;102992.59;5036487;28;20214;-61
2023/04/04 07:46:53;;;;;;;3.10;2.17;;;13.40;33.60;;;19.26;23.74;102998.63;5042163;28;20651;-60
2023/04/04 07:49:32;;;;;;;4.17;2.60;;;13.70;32.80;;;20.16;23.85;102993.28;5042235;28;20191;-62
2023/04/04 07:51:59;;;;;;;2.80;2.57;;;14.20;33.70;;;21.03;22.73;102988.13;5038551;28;20292;-59
2023/04/04 07:54:26;;;;;;;3.00;2.67;;;14.70;32.20;;;21.72;21.88;102994.66;5034155;28;20230;-59
2023/04/04 07:56:53;;;;;;;3.23;2.57;;;15.20;30.80;;;22.15;21.06;102993.59;5034831;28;20214;-59
2023/04/04 07:59:20;;;;;;;5.07;3.77;;;15.70;29.50;;;22.40;20.75;102989.44;5035799;28;20263;-60
2023/04/04 08:01:49;;;;;;;4.97;3.23;;;16.10;29.10;;;22.78;19.82;102988.03;5034218;28;20197;-59
2023/04/04 08:04:16;;;;;;;4.63;2.90;;;16.40;28.20;;;23.17;19.61;102986.50;5034259;28;20222;-61
2023/04/04 08:06:43;;;;;;;4.60;2.60;;;16.80;27.60;;;23.42;19.09;102979.56;5034873;28;20268;-61
2023/04/04 08:09:10;;;;;;;4.10;2.97;;;17.20;26.90;;;23.84;19.29;102968.44;5035554;28;20669;-60
2023/04/04 08:11:37;;;;;;;4.87;2.70;;;17.50;27.40;;;24.44;18.19;102974.59;5034693;28;20210;-60
2023/04/04 08:14:04;;;;;;;5.17;2.90;;;17.90;26.90;;;24.78;17.46;102976.97;5035648;28;20698;-57
2023/04/04 08:16:32;;;;;;;4.00;2.53;;;18.10;25.20;;;24.72;18.09;102977.81;5035510;28;20634;-59
2023/04/04 08:19:02;;;;;;;4.33;2.80;;;18.50;25.30;;;24.99;18.08;102973.97;5035206;28;20236;-60
2023/04/04 08:21:29;;;;;;;6.27;2.70;;;18.80;25.40;;;25.39;17.01;102979.94;5033951;28;20225;-62
2023/04/04 08:23:57;;;;;;;13.20;10.07;;;19.10;24.90;;;25.91;17.31;102978.75;5034046;28;20272;-63
2023/04/04 08:26:23;;;;;;;3.00;2.60;;;19.30;24.70;;;26.26;16.98;102982.59;5034309;28;20194;-59
2023/04/04 08:28:50;;;;;;;4.07;3.30;;;19.60;24.30;;;26.61;16.14;102975.56;5034567;28;20198;-60
2023/04/04 08:31:17;;;;;;;7.13;4.80;;;19.80;23.80;;;27.06;15.74;102980.59;5034279;28;20191;-59
2023/04/04 08:33:44;;;;;;;4.30;2.80;;;20.10;24.00;;;27.26;16.03;102970.34;5034322;28;20300;-61
2023/04/04 08:36:15;;;;;;;2.50;2.30;;;20.30;23.80;;;27.45;15.86;102964.66;5034401;28;20195;-62
2023/04/04 08:38:42;;;;;;;3.47;2.40;;;20.60;23.30;;;27.75;15.00;102970.00;5034256;28;20207;-58
2023/04/04 08:41:10;;;;;;;3.80;3.07;;;20.70;22.60;;;27.93;14.98;102964.47;5032528;28;20201;-60
2023/04/04 08:43:40;;;;;;;4.00;2.63;;;20.90;22.60;;;28.11;14.60;102956.25;5034507;28;20655;-62
2023/04/04 08:46:09;;;;;;;3.87;3.20;;;21.00;22.40;;;28.16;14.68;102961.78;5034396;28;20202;-60
2023/04/04 08:48:41;;;;;;;4.13;2.63;;;21.20;22.00;;;28.16;14.78;102958.25;5034182;28;20187;-57
2023/04/04 08:51:12;;;;;;;2.90;2.33;;;21.40;22.20;;;28.34;14.45;102954.56;5033852;28;20277;-58
2023/04/04 08:53:41;;;;;;;7.70;2.90;;;21.40;22.00;;;28.56;14.91;102953.69;5014441;28;20325;-61
2023/04/04 08:56:09;;;;;;;6.67;2.80;;;21.60;22.00;;;28.80;14.48;102951.75;5027102;28;20277;-60
2023/04/04 08:58:37;;;;;;;4.47;2.43;;;21.70;22.00;;;28.69;14.33;102953.44;5032498;28;20200;-59
2023/04/04 09:01:06;;;;;;;3.90;2.87;;;21.90;21.80;;;28.50;14.24;102949.22;5034522;28;20226;-62
2023/04/04 09:03:35;;;;;;;7.30;6.10;;;22.00;21.10;;;28.63;14.28;102953.59;5033590;28;20190;-60
2023/04/04 09:06:04;;;;;;;8.87;7.97;;;22.00;20.80;;;29.06;13.81;102953.88;5033480;28;20220;-59
2023/04/04 09:08:31;;;;;;;4.63;3.27;;;22.10;21.00;;;29.58;13.34;102957.25;5018188;28;20293;-60
2023/04/04 09:11:02;;;;;;;2.97;2.67;;;22.20;20.90;;;30.05;12.97;102957.72;5033602;28;20224;-61
2023/04/04 09:13:29;;;;;;;10.77;7.63;;;22.40;20.60;;;30.13;12.52;102954.59;5033464;28;20341;-62
2023/04/04 09:15:59;;;;;;;4.90;3.53;;;22.50;20.00;;;30.45;12.56;102952.06;5034663;28;20178;-61
2023/04/04 09:18:27;;;;;;;4.43;3.03;;;22.60;20.50;;;30.81;12.95;102945.94;5028797;28;20623;-63
2023/04/04 09:20:54;;;;;;;3.23;2.47;;;22.70;20.20;;;30.91;12.71;102946.06;5033340;28;20226;-59
2023/04/04 09:23:22;;;;;;;2.90;2.20;;;22.90;20.00;;;30.85;11.86;102935.38;5045547;28;20187;-56
2023/04/04 09:25:51;;;;;;;3.13;2.50;;;23.00;19.40;;;30.71;12.73;102940.41;5025883;28;20218;-60
2023/04/04 09:28:34;;;;;;;3.25;2.50;;;23.10;19.60;;;30.61;12.54;102941.13;5029846;28;20433;-57
2023/04/04 09:31:05;;;;;;;7.72;4.10;;;23.10;19.40;;;30.35;11.96;102936.44;5030463;28;20886;-59
2023/04/04 09:33:35;;;;;;;4.68;2.20;;;23.20;19.20;;;30.65;11.91;102936.78;5032983;28;20453;-59
2023/04/04 09:36:08;;;;;;;3.50;2.10;;;23.10;19.20;;;30.82;11.79;102936.72;5033624;28;20225;-58
2023/04/04 09:38:39;;;;;;;3.53;1.90;;;23.10;19.10;;;31.00;12.23;102935.56;5030998;28;20228;-60
2023/04/04 09:41:08;;;;;;;4.23;3.00;;;23.30;19.20;;;31.28;12.03;102930.66;5012217;28;20210;-59
2023/04/04 09:43:39;;;;;;;2.40;1.92;;;23.30;18.50;;;31.58;11.00;102924.66;5031047;28;20441;-59
2023/04/04 09:46:06;;;;;;;2.30;2.10;;;23.40;18.20;;;31.58;10.91;102927.38;5031036;28;20191;-60
2023/04/04 09:48:35;;;;;;;2.80;2.25;;;23.40;18.40;;;31.85;10.88;102928.13;5032701;28;20437;-59
2023/04/04 09:51:05;;;;;;;3.60;2.20;;;23.50;18.20;;;31.97;11.04;102923.28;5038226;28;20194;-61
2023/04/04 09:53:35;;;;;;;3.67;2.80;;;23.70;18.40;;;32.44;11.01;102922.41;5027530;28;20429;-62
2023/04/04 09:56:02;;;;;;;6.63;2.53;;;24.00;18.60;;;32.18;10.40;102921.50;5034514;28;20252;-58
2023/04/04 09:58:34;;;;;;;2.60;1.90;;;24.20;17.50;;;31.78;11.04;102913.06;5030582;28;20194;-61
2023/04/04 10:01:11;;;;;;;4.73;2.80;;;24.20;17.40;;;31.17;11.13;102922.63;5034664;28;20267;-64
2023/04/04 10:03:38;;;;;;;5.70;2.33;;;24.00;17.00;;;31.21;11.16;102918.34;5029539;28;20433;-60
2023/04/04 10:06:11;;;;;;;2.50;1.93;;;24.10;17.60;;;31.10;11.46;102935.63;5033301;28;20212;-61
2023/04/04 10:08:40;;;;;;;4.30;2.08;;;23.90;17.50;;;31.10;11.00;102927.47;5030563;28;20576;-58
2023/04/04 10:11:07;;;;;;;3.47;2.20;;;23.80;17.60;;;30.87;11.54;102938.66;5034548;28;20643;-65
2023/04/04 10:13:45;;;;;;;4.77;1.97;;;23.90;17.10;;;30.40;11.26;102928.34;5037924;28;20202;-62
2023/04/04 10:16:14;;;;;;;2.13;1.92;;;23.90;17.00;;;30.10;11.07;102925.19;5030993;28;20426;-61
2023/04/04 10:18:42;;;;;;;3.85;2.50;;;23.70;16.60;;;29.62;11.35;102925.03;5032882;28;20489;-60
2023/04/04 10:21:09;;;;;;;3.70;2.20;;;23.30;16.60;;;29.39;12.07;102921.41;5033146;28;20202;-64
2023/04/04 10:23:44;;;;;;;4.77;2.33;;;23.50;17.60;;;29.43;11.78;102922.53;5033079;28;20206;-58
2023/04/04 10:26:12;;;;;;;2.27;1.63;;;23.40;17.00;;;29.41;11.90;102921.13;5043144;28;20215;-62